createdAt,value
2018-03-08T00:00:55.682Z,94666.58
2018-03-08T00:03:24.010Z,94667.98
2018-03-08T00:05:52.321Z,94666.33
2018-03-08T00:08:20.738Z,94667.48
2018-03-08T00:10:49.100Z,94677.91
2018-03-08T00:13:17.488Z,94682.64
2018-03-08T00:15:45.756Z,94673.72
2018-03-08T00:18:14.141Z,94675.53
2018-03-08T00:20:42.456Z,94680.34
2018-03-08T00:23:10.881Z,94680.74
2018-03-08T00:25:39.195Z,94693.20
2018-03-08T00:28:07.531Z,94690.36
2018-03-08T00:30:36.011Z,94692.49
2018-03-08T00:33:04.457Z,94686.13
2018-03-08T00:35:32.807Z,94690.13
2018-03-08T00:38:01.198Z,94691.86
2018-03-08T00:40:29.490Z,94688.81
2018-03-08T00:42:57.826Z,94688.87
2018-03-08T00:45:26.174Z,94694.63
2018-03-08T00:47:54.524Z,94699.78
2018-03-08T00:50:22.818Z,94696.15
2018-03-08T00:52:51.221Z,94704.75
2018-03-08T00:55:19.606Z,94708.25
2018-03-08T00:57:47.922Z,94702.41
2018-03-08T01:00:16.256Z,94711.17
2018-03-08T01:02:44.557Z,94706.67
2018-03-08T01:05:12.887Z,94709.35
2018-03-08T01:07:41.291Z,94708.88
2018-03-08T01:10:09.667Z,94709.34
2018-03-08T01:12:37.966Z,94708.42
2018-03-08T01:15:06.321Z,94704.08
2018-03-08T01:17:34.631Z,94714.50
2018-03-08T01:20:02.955Z,94714.66
2018-03-08T01:22:31.376Z,94713.63
2018-03-08T01:24:59.732Z,94713.31
2018-03-08T01:27:28.107Z,94715.37
2018-03-08T01:29:56.449Z,94707.00
2018-03-08T01:32:24.857Z,94708.09
2018-03-08T01:34:53.234Z,94718.45
2018-03-08T01:37:21.624Z,94714.99
2018-03-08T01:39:49.953Z,94721.47
2018-03-08T01:42:18.261Z,94725.48
2018-03-08T01:44:46.603Z,94724.07
2018-03-08T01:47:14.943Z,94732.59
2018-03-08T01:49:43.314Z,94733.78
2018-03-08T01:52:11.606Z,94740.56
2018-03-08T01:54:39.934Z,94731.17
2018-03-08T01:57:08.325Z,94738.20
2018-03-08T01:59:36.739Z,94733.06
2018-03-08T02:02:05.066Z,94731.15
2018-03-08T02:04:33.374Z,94732.48
2018-03-08T02:07:01.750Z,94735.65
2018-03-08T02:09:30.138Z,94736.36
2018-03-08T02:11:58.466Z,94741.73
2018-03-08T02:14:26.763Z,94739.07
2018-03-08T02:16:55.184Z,94742.99
2018-03-08T02:19:23.508Z,94745.05
2018-03-08T02:21:51.823Z,94746.15
2018-03-08T02:24:20.135Z,94756.33
2018-03-08T02:26:48.467Z,94748.48
2018-03-08T02:29:16.759Z,94752.59
2018-03-08T02:31:45.139Z,94748.57
2018-03-08T02:34:13.454Z,94752.36
2018-03-08T02:36:41.900Z,94752.13
2018-03-08T02:39:10.207Z,94749.87
2018-03-08T02:41:38.642Z,94749.41
2018-03-08T02:44:06.948Z,94758.31
2018-03-08T02:46:35.272Z,94748.53
2018-03-08T02:49:03.586Z,94750.35
2018-03-08T02:51:31.914Z,94755.16
2018-03-08T02:54:00.219Z,94754.61
2018-03-08T02:56:28.528Z,94763.77
2018-03-08T02:58:56.872Z,94770.31
2018-03-08T03:01:25.265Z,94766.44
2018-03-08T03:03:53.600Z,94763.77
2018-03-08T03:06:21.910Z,94758.24
2018-03-08T03:08:50.306Z,94757.21
2018-03-08T03:11:18.610Z,94764.55
2018-03-08T03:13:47.126Z,94761.16
2018-03-08T03:16:15.423Z,94754.61
2018-03-08T03:18:43.798Z,94762.98
2018-03-08T03:21:12.186Z,94762.66
2018-03-08T03:23:40.514Z,94769.84
2018-03-08T03:26:08.827Z,94766.56
2018-03-08T03:28:37.216Z,94766.13
2018-03-08T03:31:05.517Z,94770.23
2018-03-08T03:33:33.876Z,94768.34
2018-03-08T03:36:02.168Z,94775.05
2018-03-08T03:38:30.516Z,94775.13
2018-03-08T03:40:58.819Z,94775.28
2018-03-08T03:43:27.152Z,94784.87
2018-03-08T03:45:55.479Z,94775.40
2018-03-08T03:48:23.819Z,94779.66
2018-03-08T03:50:52.132Z,94780.21
2018-03-08T03:53:20.463Z,94782.34
2018-03-08T03:55:48.777Z,94789.25
2018-03-08T03:58:17.137Z,94790.67
2018-03-08T04:00:45.516Z,94787.20
2018-03-08T04:03:13.823Z,94795.59
2018-03-08T04:05:42.164Z,94798.09
2018-03-08T04:08:10.549Z,94803.21
2018-03-08T04:10:38.882Z,94800.61
2018-03-08T04:13:07.185Z,94802.34
2018-03-08T04:15:35.585Z,94805.42
2018-03-08T04:18:04.176Z,94811.58
2018-03-08T04:20:32.547Z,94810.07
2018-03-08T04:23:00.940Z,94805.97
2018-03-08T04:25:29.255Z,94807.94
2018-03-08T04:27:57.551Z,94812.70
2018-03-08T04:30:25.880Z,94816.52
2018-03-08T04:32:54.191Z,94822.12
2018-03-08T04:35:22.526Z,94819.83
2018-03-08T04:37:50.831Z,94825.58
2018-03-08T04:40:19.161Z,94826.83
2018-03-08T04:42:47.474Z,94825.59
2018-03-08T04:45:15.814Z,94827.27
2018-03-08T04:47:44.136Z,94836.48
2018-03-08T04:50:12.476Z,94833.25
2018-03-08T04:52:40.791Z,94835.81
2018-03-08T04:55:09.102Z,94833.92
2018-03-08T04:57:37.437Z,94832.53
2018-03-08T05:00:05.739Z,94840.33
2018-03-08T05:02:34.067Z,94836.05
2018-03-08T05:05:02.375Z,94839.61
2018-03-08T05:07:30.699Z,94848.03
2018-03-08T05:09:59.009Z,94848.31
2018-03-08T05:12:27.343Z,94861.14
2018-03-08T05:14:55.764Z,94854.36
2018-03-08T05:17:24.130Z,94861.86
2018-03-08T05:19:52.482Z,94868.70
2018-03-08T05:22:20.812Z,94870.82
2018-03-08T05:24:49.138Z,94874.93
2018-03-08T05:27:18.096Z,94873.36
2018-03-08T05:29:46.404Z,94878.34
2018-03-08T05:32:14.740Z,94875.84
2018-03-08T05:34:43.052Z,94878.42
2018-03-08T05:37:11.382Z,94887.73
2018-03-08T05:39:39.681Z,94884.33
2018-03-08T05:42:08.025Z,94894.67
2018-03-08T05:44:36.340Z,94892.88
2018-03-08T05:47:04.680Z,94895.69
2018-03-08T05:49:32.974Z,94897.98
2018-03-08T05:52:01.416Z,94899.18
2018-03-08T05:54:29.793Z,94903.11
2018-03-08T05:56:58.098Z,94908.72
2018-03-08T05:59:26.422Z,94912.00
2018-03-08T06:01:54.822Z,94917.78
2018-03-08T06:04:23.157Z,94922.09
2018-03-08T06:06:51.462Z,94928.34
2018-03-08T06:09:19.794Z,94931.98
2018-03-08T06:11:48.089Z,94940.23
2018-03-08T06:14:16.527Z,94938.54
2018-03-08T06:16:44.861Z,94939.64
2018-03-08T06:19:13.190Z,94941.27
2018-03-08T06:21:41.557Z,94939.08
2018-03-08T06:24:09.938Z,94944.19
2018-03-08T06:26:38.243Z,94952.50
2018-03-08T06:29:06.703Z,94960.92
2018-03-08T06:31:35.069Z,94954.05
2018-03-08T06:34:03.443Z,94956.88
2018-03-08T06:36:31.782Z,94965.89
2018-03-08T06:39:00.171Z,94959.96
2018-03-08T06:41:28.426Z,94968.64
2018-03-08T06:43:56.850Z,94966.05
2018-03-08T06:46:25.161Z,94975.52
2018-03-08T06:48:53.605Z,94973.83
2018-03-08T06:51:21.910Z,94974.73
2018-03-08T06:53:50.224Z,94984.53
2018-03-08T06:56:18.564Z,94985.13
2018-03-08T06:58:46.883Z,94979.13
2018-03-08T07:01:15.222Z,94984.89
2018-03-08T07:03:43.575Z,94982.55
2018-03-08T07:06:11.907Z,94985.39
2018-03-08T07:08:40.207Z,94984.62
2018-03-08T07:11:08.611Z,94977.03
2018-03-08T07:13:36.915Z,94984.18
2018-03-08T07:16:05.316Z,94987.67
2018-03-08T07:18:33.571Z,94995.80
2018-03-08T07:21:01.901Z,94984.97
2018-03-08T07:23:30.215Z,94997.59
2018-03-08T07:25:58.578Z,94992.81
2018-03-08T07:28:26.982Z,94993.89
2018-03-08T07:30:55.364Z,94990.88
2018-03-08T07:33:23.662Z,94987.83
2018-03-08T07:35:52.088Z,94994.67
2018-03-08T07:38:20.488Z,95004.25
2018-03-08T07:40:48.829Z,94995.08
2018-03-08T07:43:17.316Z,95004.06
2018-03-08T07:45:45.704Z,95003.97
2018-03-08T07:48:14.000Z,95000.86
2018-03-08T07:50:42.367Z,95002.56
2018-03-08T07:53:10.683Z,95008.53
2018-03-08T07:55:38.985Z,94988.63
2018-03-08T07:58:07.319Z,94996.37
2018-03-08T08:00:35.663Z,94996.66
2018-03-08T08:03:03.999Z,95002.73
2018-03-08T08:05:44.077Z,95001.08
2018-03-08T08:08:24.118Z,95001.12
2018-03-08T08:10:52.458Z,95002.23
2018-03-08T08:13:20.795Z,95009.61
2018-03-08T08:15:49.186Z,95001.95
2018-03-08T08:18:17.800Z,94992.64
2018-03-08T08:20:46.091Z,95000.99
2018-03-08T08:23:14.414Z,94996.28
2018-03-08T08:25:42.719Z,94992.88
2018-03-08T08:28:11.055Z,94997.02
2018-03-08T08:30:39.359Z,95010.62
2018-03-08T08:33:07.795Z,94999.01
2018-03-08T08:35:36.089Z,94992.75
2018-03-08T08:38:04.435Z,94987.22
2018-03-08T08:40:32.791Z,94983.02
2018-03-08T08:43:01.140Z,95004.48
2018-03-08T08:45:29.504Z,94990.14
2018-03-08T08:47:57.872Z,94973.94
2018-03-08T08:50:26.161Z,94975.73
2018-03-08T08:52:54.506Z,94977.87
2018-03-08T08:55:22.834Z,94979.48
2018-03-08T08:57:51.199Z,94983.96
2018-03-08T09:00:19.560Z,94975.91
2018-03-08T09:02:47.928Z,94979.99
2018-03-08T09:05:16.327Z,94996.53
2018-03-08T09:07:44.715Z,94987.24
2018-03-08T09:10:13.137Z,94991.41
2018-03-08T09:12:41.423Z,94989.28
2018-03-08T09:15:09.775Z,94988.22
2018-03-08T09:17:38.094Z,94978.27
2018-03-08T09:20:06.498Z,94988.36
2018-03-08T09:22:34.882Z,94991.26
2018-03-08T09:25:03.215Z,94992.61
2018-03-08T09:27:31.543Z,94988.52
2018-03-08T09:29:59.916Z,94991.17
2018-03-08T09:32:28.225Z,94990.51
2018-03-08T09:34:56.557Z,94982.27
2018-03-08T09:37:24.949Z,94983.16
2018-03-08T09:39:53.371Z,94988.64
2018-03-08T09:42:21.684Z,94983.20
2018-03-08T09:44:50.081Z,94980.98
2018-03-08T09:47:18.984Z,94985.69
2018-03-08T09:49:47.323Z,94974.70
2018-03-08T09:52:15.644Z,95002.42
2018-03-08T09:54:44.013Z,94982.35
2018-03-08T09:57:12.379Z,94974.91
2018-03-08T09:59:40.685Z,94982.02
2018-03-08T10:02:09.024Z,94977.59
2018-03-08T10:04:37.431Z,94973.51
2018-03-08T10:07:05.894Z,94973.90
2018-03-08T10:09:34.194Z,94969.17
2018-03-08T10:12:02.543Z,94957.27
2018-03-08T10:14:30.860Z,94964.95
2018-03-08T10:16:59.210Z,94980.79
2018-03-08T10:19:27.517Z,94959.88
2018-03-08T10:21:55.892Z,94970.18
2018-03-08T10:24:24.231Z,94966.55
2018-03-08T10:26:52.615Z,94972.88
2018-03-08T10:29:20.948Z,94964.89
2018-03-08T10:31:49.343Z,94965.36
2018-03-08T10:34:17.651Z,94963.56
2018-03-08T10:36:45.983Z,94952.69
2018-03-08T10:44:11.066Z,94969.84
2018-03-08T10:46:39.406Z,94964.80
2018-03-08T10:49:07.723Z,94962.60
2018-03-08T10:51:36.054Z,94962.61
2018-03-08T10:54:04.469Z,94967.05
2018-03-08T10:56:32.846Z,94968.97
2018-03-08T10:59:01.182Z,94969.39
2018-03-08T11:01:39.415Z,94952.88
2018-03-08T11:04:13.318Z,94953.02
2018-03-08T11:06:41.623Z,94954.17
2018-03-08T11:09:09.991Z,94950.53
2018-03-08T11:11:38.343Z,94959.42
2018-03-08T11:14:06.675Z,94944.41
2018-03-08T11:16:35.027Z,94944.19
2018-03-08T11:19:03.357Z,94931.00
2018-03-08T11:21:31.662Z,94940.55
2018-03-08T11:23:59.991Z,94939.37
2018-03-08T11:26:28.369Z,94934.54
2018-03-08T11:28:56.714Z,94933.93
2018-03-08T11:31:25.029Z,94928.30
2018-03-08T11:33:53.390Z,94931.25
2018-03-08T11:36:21.692Z,94924.99
2018-03-08T11:38:50.123Z,94909.05
2018-03-08T11:41:18.430Z,94917.25
2018-03-08T11:43:46.768Z,94924.53
2018-03-08T11:46:15.170Z,94912.64
2018-03-08T11:48:43.499Z,94924.50
2018-03-08T11:51:11.823Z,94921.20
2018-03-08T11:53:40.183Z,94916.40
2018-03-08T11:56:08.490Z,94918.38
2018-03-08T11:58:36.867Z,94919.58
2018-03-08T12:01:05.339Z,94907.89
2018-03-08T12:03:33.659Z,94906.41
2018-03-08T12:06:02.086Z,94915.69
2018-03-08T12:08:30.397Z,94896.19
2018-03-08T12:10:58.750Z,94893.05
2018-03-08T12:13:27.158Z,94896.97
2018-03-08T12:15:55.533Z,94886.16
2018-03-08T12:18:23.832Z,94874.69
2018-03-08T12:20:52.220Z,94865.73
2018-03-08T12:23:20.630Z,94864.06
2018-03-08T12:25:48.963Z,94861.74
2018-03-08T12:28:17.270Z,94860.44
2018-03-08T12:30:45.658Z,94864.13
2018-03-08T12:33:14.047Z,94865.77
2018-03-08T12:35:42.459Z,94869.78
2018-03-08T12:38:10.761Z,94878.89
2018-03-08T12:40:39.179Z,94882.20
2018-03-08T12:43:08.272Z,94876.62
2018-03-08T12:45:36.691Z,94875.19
2018-03-08T12:48:05.027Z,94869.09
2018-03-08T12:50:33.347Z,94872.44
2018-03-08T12:53:01.786Z,94865.27
2018-03-08T12:55:30.206Z,94865.50
2018-03-08T12:57:58.644Z,94854.66
2018-03-08T13:00:27.024Z,94863.99
2018-03-08T13:02:55.358Z,94857.50
2018-03-08T13:05:23.769Z,94853.61
2018-03-08T13:07:52.123Z,94853.41
2018-03-08T13:10:20.436Z,94859.14
2018-03-08T13:12:48.851Z,94841.69
2018-03-08T13:15:17.167Z,94852.38
2018-03-08T13:17:45.571Z,94849.16
2018-03-08T13:20:13.960Z,94849.78
2018-03-08T13:22:42.390Z,94837.17
2018-03-08T13:25:10.743Z,94846.95
2018-03-08T13:27:39.070Z,94838.02
2018-03-08T13:30:07.394Z,94825.43
2018-03-08T13:32:35.725Z,94821.95
2018-03-08T13:35:04.038Z,94826.14
2018-03-08T13:37:32.378Z,94814.86
2018-03-08T13:40:00.706Z,94815.23
2018-03-08T13:42:29.949Z,94812.69
2018-03-08T13:44:58.266Z,94799.59
2018-03-08T13:47:26.610Z,94806.94
2018-03-08T13:49:54.948Z,94804.50
2018-03-08T13:52:23.307Z,94793.05
2018-03-08T13:54:51.693Z,94793.43
2018-03-08T13:57:20.043Z,94798.45
2018-03-08T13:59:48.418Z,94792.09
2018-03-08T14:02:16.772Z,94786.44
2018-03-08T14:04:45.074Z,94780.48
2018-03-08T14:07:13.394Z,94777.00
2018-03-08T14:09:41.725Z,94774.55
2018-03-08T14:12:10.073Z,94774.02
2018-03-08T14:14:38.403Z,94770.47
2018-03-08T14:17:06.754Z,94765.09
2018-03-08T14:19:35.170Z,94766.68
2018-03-08T14:22:03.818Z,94752.73
2018-03-08T14:24:32.213Z,94746.78
2018-03-08T14:27:00.539Z,94744.34
2018-03-08T14:29:28.931Z,94749.06
2018-03-08T14:31:57.297Z,94749.39
2018-03-08T14:34:25.644Z,94743.88
2018-03-08T14:36:53.955Z,94737.58
2018-03-08T14:39:22.319Z,94737.58
2018-03-08T14:41:50.647Z,94750.33
2018-03-08T14:44:19.035Z,94745.45
2018-03-08T14:46:47.345Z,94739.99
2018-03-08T14:49:15.669Z,94747.98
2018-03-08T14:51:44.007Z,94736.16
2018-03-08T14:54:12.365Z,94740.04
2018-03-08T14:56:40.742Z,94746.98
2018-03-08T14:59:09.053Z,94736.39
2018-03-08T15:01:37.475Z,94725.91
2018-03-08T15:04:05.790Z,94723.11
2018-03-08T15:06:34.122Z,94717.95
2018-03-08T15:09:02.459Z,94716.45
2018-03-08T15:11:30.870Z,94711.70
2018-03-08T15:13:59.176Z,94709.56
2018-03-08T15:16:28.137Z,94708.98
2018-03-08T15:18:56.420Z,94705.76
2018-03-08T15:21:24.759Z,94698.67
2018-03-08T15:23:53.208Z,94700.80
2018-03-08T15:26:21.596Z,94695.48
2018-03-08T15:28:49.961Z,94694.09
2018-03-08T15:31:18.311Z,94689.05
2018-03-08T15:33:46.725Z,94686.27
2018-03-08T15:36:15.182Z,94690.02
2018-03-08T15:38:43.489Z,94692.79
2018-03-08T15:41:11.826Z,94684.56
2018-03-08T15:43:40.145Z,94691.05
2018-03-08T15:46:08.598Z,94684.83
2018-03-08T15:48:36.912Z,94686.52
2018-03-08T15:51:06.273Z,94686.19
2018-03-08T15:53:34.610Z,94684.12
2018-03-08T15:56:02.920Z,94689.69
2018-03-08T15:58:31.276Z,94685.32
2018-03-08T16:00:59.707Z,94695.55
2018-03-08T16:03:28.089Z,94692.00
2018-03-08T16:05:56.460Z,94688.59
2018-03-08T16:08:31.440Z,94692.92
2018-03-08T16:10:59.836Z,94686.64
2018-03-08T16:13:28.254Z,94693.53
2018-03-08T16:15:56.634Z,94693.19
2018-03-08T16:18:24.977Z,94697.20
2018-03-08T16:20:53.366Z,94695.84
2018-03-08T16:23:21.766Z,94700.62
2018-03-08T16:25:50.091Z,94697.45
2018-03-08T16:28:18.483Z,94699.25
2018-03-08T16:30:46.901Z,94699.88
2018-03-08T16:33:15.276Z,94701.61
2018-03-08T16:35:43.647Z,94698.86
2018-03-08T16:38:11.951Z,94700.88
2018-03-08T16:40:40.327Z,94693.34
2018-03-08T16:43:08.689Z,94690.12
2018-03-08T16:45:37.030Z,94688.41
2018-03-08T16:48:05.354Z,94689.55
2018-03-08T16:50:34.564Z,94688.23
2018-03-08T16:53:02.870Z,94689.30
2018-03-08T16:55:31.226Z,94690.86
2018-03-08T16:57:59.534Z,94685.09
2018-03-08T17:00:27.908Z,94695.16
2018-03-08T17:02:56.341Z,94684.12
2018-03-08T17:05:24.695Z,94689.37
2018-03-08T17:07:52.985Z,94689.53
2018-03-08T17:10:21.573Z,94692.58
2018-03-08T17:12:49.916Z,94694.77
2018-03-08T17:15:18.325Z,94701.34
2018-03-08T17:17:46.631Z,94694.16
2018-03-08T17:20:14.979Z,94705.55
2018-03-08T17:22:43.285Z,94704.16
2018-03-08T17:25:11.591Z,94711.87
2018-03-08T17:27:39.970Z,94720.69
2018-03-08T17:30:08.354Z,94719.42
2018-03-08T17:32:36.695Z,94724.50
2018-03-08T17:35:05.044Z,94720.18
2018-03-08T17:37:33.376Z,94711.92
2018-03-08T17:40:01.708Z,94724.36
2018-03-08T17:42:30.097Z,94724.44
2018-03-08T17:44:58.425Z,94725.34
2018-03-08T17:47:26.763Z,94729.19
2018-03-08T17:49:55.063Z,94738.28
2018-03-08T17:52:23.402Z,94740.51
2018-03-08T17:54:51.711Z,94739.56
2018-03-08T17:57:20.051Z,94741.42
2018-03-08T17:59:48.405Z,94738.25
2018-03-08T18:02:16.710Z,94739.83
2018-03-08T18:04:45.073Z,94741.31
2018-03-08T18:07:13.397Z,94743.39
2018-03-08T18:09:42.158Z,94743.88
2018-03-08T18:12:10.584Z,94749.11
2018-03-08T18:14:38.976Z,94756.29
2018-03-08T18:17:07.472Z,94752.96
2018-03-08T18:19:35.780Z,94755.13
2018-03-08T18:22:04.200Z,94758.97
2018-03-08T18:24:32.514Z,94767.59
2018-03-08T18:27:00.859Z,94770.95
2018-03-08T18:29:29.203Z,94768.48
2018-03-08T18:31:57.611Z,94773.37
2018-03-08T18:34:25.987Z,94771.94
2018-03-08T18:36:54.404Z,94766.05
2018-03-08T18:39:22.778Z,94775.41
2018-03-08T18:41:51.164Z,94776.38
2018-03-08T18:44:19.494Z,94777.38
2018-03-08T18:46:47.878Z,94781.72
2018-03-08T18:49:16.215Z,94786.44
2018-03-08T18:51:44.626Z,94786.77
2018-03-08T18:54:12.966Z,94779.86
2018-03-08T18:56:41.280Z,94784.86
2018-03-08T18:59:09.600Z,94783.45
2018-03-08T19:01:37.911Z,94774.90
2018-03-08T19:04:06.244Z,94772.35
2018-03-08T19:06:34.595Z,94774.28
2018-03-08T19:09:02.927Z,94770.11
2018-03-08T19:11:31.251Z,94769.64
2018-03-08T19:13:59.615Z,94761.75
2018-03-08T19:16:27.915Z,94765.47
2018-03-08T19:18:56.271Z,94768.36
2018-03-08T19:21:24.578Z,94766.50
2018-03-08T19:23:53.077Z,94762.67
2018-03-08T19:26:21.406Z,94763.13
2018-03-08T19:28:49.742Z,94760.66
2018-03-08T19:31:18.076Z,94757.03
2018-03-08T19:33:46.479Z,94764.02
2018-03-08T19:36:14.864Z,94764.23
2018-03-08T19:38:43.182Z,94767.16
2018-03-08T19:41:11.525Z,94764.30
2018-03-08T19:43:39.873Z,94769.00
2018-03-08T19:46:09.043Z,94778.91
2018-03-08T19:48:37.467Z,94774.29
2018-03-08T19:51:05.815Z,94772.69
2018-03-08T19:53:34.147Z,94787.28
2018-03-08T19:56:02.571Z,94787.22
2018-03-08T19:58:30.871Z,94790.66
2018-03-08T20:00:59.194Z,94790.31
2018-03-08T20:03:27.640Z,94798.75
2018-03-08T20:05:56.020Z,94792.44
2018-03-08T20:08:24.404Z,94804.88
2018-03-08T20:10:52.742Z,94799.98
2018-03-08T20:13:21.172Z,94797.05
2018-03-08T20:15:49.498Z,94797.97
2018-03-08T20:18:17.874Z,94806.66
2018-03-08T20:20:46.273Z,94804.27
2018-03-08T20:23:14.563Z,94810.55
2018-03-08T20:25:43.014Z,94811.20
2018-03-08T20:28:11.350Z,94817.11
2018-03-08T20:30:39.655Z,94815.30
2018-03-08T20:33:07.994Z,94819.83
2018-03-08T20:35:36.355Z,94817.73
2018-03-08T20:38:04.669Z,94820.50
2018-03-08T20:40:33.098Z,94821.70
2018-03-08T20:43:01.459Z,94821.61
2018-03-08T20:45:29.784Z,94824.06
2018-03-08T20:47:58.131Z,94828.83
2018-03-08T20:50:26.474Z,94827.31
2018-03-08T20:52:54.878Z,94836.75
2018-03-08T20:55:23.294Z,94835.00
2018-03-08T20:57:51.660Z,94834.99
2018-03-08T21:00:19.972Z,94838.12
2018-03-08T21:02:48.377Z,94834.97
2018-03-08T21:05:16.691Z,94835.69
2018-03-08T21:07:45.134Z,94848.63
2018-03-08T21:10:13.514Z,94866.08
2018-03-08T21:12:41.847Z,94857.88
2018-03-08T21:15:10.192Z,94861.75
2018-03-08T21:17:38.534Z,94857.08
2018-03-08T21:20:06.843Z,94858.51
2018-03-08T21:22:35.209Z,94865.47
2018-03-08T21:25:03.530Z,94865.47
2018-03-08T21:27:31.839Z,94860.55
2018-03-08T21:30:00.259Z,94875.12
2018-03-08T21:32:28.582Z,94880.13
2018-03-08T21:34:56.969Z,94884.03
2018-03-08T21:37:25.308Z,94891.78
2018-03-08T21:39:53.629Z,94899.97
2018-03-08T21:42:21.942Z,94897.06
2018-03-08T21:44:51.201Z,94904.34
2018-03-08T21:47:19.560Z,94906.99
2018-03-08T21:49:47.852Z,94913.09
2018-03-08T21:52:16.191Z,94915.07
2018-03-08T21:54:44.517Z,94914.18
2018-03-08T21:57:12.907Z,94914.74
2018-03-08T21:59:41.320Z,94917.59
2018-03-08T22:02:09.662Z,94918.00
2018-03-08T22:04:37.980Z,94919.66
2018-03-08T22:07:06.353Z,94921.07
2018-03-08T22:09:34.694Z,94919.27
2018-03-08T22:12:03.046Z,94916.81
2018-03-08T22:14:31.567Z,94923.38
2018-03-08T22:16:59.860Z,94921.32
2018-03-08T22:19:28.167Z,94919.18
2018-03-08T22:21:56.471Z,94921.47
2018-03-08T22:24:24.879Z,94925.35
2018-03-08T22:26:53.258Z,94920.79
2018-03-08T22:29:21.622Z,94925.35
2018-03-08T22:31:49.997Z,94926.08
2018-03-08T22:34:18.386Z,94928.72
2018-03-08T22:36:46.691Z,94925.06
2018-03-08T22:39:15.025Z,94928.32
2018-03-08T22:41:43.338Z,94926.20
2018-03-08T22:44:11.682Z,94926.37
2018-03-08T22:46:39.983Z,94937.49
2018-03-08T22:49:08.339Z,94935.70
2018-03-08T22:51:36.674Z,94933.44
2018-03-08T22:54:04.978Z,94939.80
2018-03-08T22:56:33.302Z,94933.33
2018-03-08T22:59:01.646Z,94935.45
2018-03-08T23:04:36.957Z,94933.23
2018-03-08T23:07:05.276Z,94933.61
2018-03-08T23:09:35.612Z,94934.75
2018-03-08T23:12:07.848Z,94932.61
2018-03-08T23:14:36.258Z,94932.86
2018-03-08T23:17:04.638Z,94922.79
2018-03-08T23:19:32.992Z,94927.33
2018-03-08T23:22:01.447Z,94928.73
2018-03-08T23:24:29.764Z,94926.19
2018-03-08T23:26:58.085Z,94938.25
2018-03-08T23:29:26.454Z,94937.11
2018-03-08T23:31:54.774Z,94938.94
2018-03-08T23:34:23.102Z,94936.73
2018-03-08T23:36:51.427Z,94945.55
2018-03-08T23:39:19.837Z,94951.24
2018-03-08T23:41:48.155Z,94945.67
2018-03-08T23:44:16.466Z,94946.50
2018-03-08T23:46:44.870Z,94945.72
2018-03-08T23:49:13.201Z,94952.98
2018-03-08T23:51:41.560Z,94953.84
2018-03-08T23:54:09.891Z,94958.48
2018-03-08T23:56:38.189Z,94959.04
2018-03-08T23:59:06.498Z,94961.22
